sensor_id;sensor_type;location;lat;lon;timestamp;P1;durP1;ratioP1;P2;durP2;ratioP2
64252;SDS011;50592;52.958;-7.470;2023-06-14T00:01:57;8.43;;;4.82;;
64252;SDS011;50592;52.958;-7.470;2023-06-14T00:04:23;7.03;;;4.93;;
64252;SDS011;50592;52.958;-7.470;2023-06-14T00:06:50;7.70;;;5.22;;
64252;SDS011;50592;52.958;-7.470;2023-06-14T00:09:16;7.10;;;4.93;;
64252;SDS011;50592;52.958;-7.470;2023-06-14T00:11:45;8.75;;;4.93;;
64252;SDS011;50592;52.958;-7.470;2023-06-14T00:14:11;6.53;;;4.93;;
64252;SDS011;50592;52.958;-7.470;2023-06-14T00:16:36;6.20;;;5.30;;
64252;SDS011;50592;52.958;-7.470;2023-06-14T00:19:04;11.07;;;5.70;;
64252;SDS011;50592;52.958;-7.470;2023-06-14T00:21:30;10.27;;;5.20;;
64252;SDS011;50592;52.958;-7.470;2023-06-14T00:24:00;6.85;;;5.07;;
64252;SDS011;50592;52.958;-7.470;2023-06-14T00:26:26;8.18;;;5.32;;
64252;SDS011;50592;52.958;-7.470;2023-06-14T00:28:53;9.20;;;4.53;;
64252;SDS011;50592;52.958;-7.470;2023-06-14T00:31:19;12.18;;;6.07;;
64252;SDS011;50592;52.958;-7.470;2023-06-14T00:33:46;6.72;;;5.35;;
64252;SDS011;50592;52.958;-7.470;2023-06-14T00:36:12;6.13;;;5.40;;
64252;SDS011;50592;52.958;-7.470;2023-06-14T00:38:38;10.45;;;6.80;;
64252;SDS011;50592;52.958;-7.470;2023-06-14T00:41:03;12.00;;;6.18;;
64252;SDS011;50592;52.958;-7.470;2023-06-14T00:43:30;14.75;;;6.95;;
64252;SDS011;50592;52.958;-7.470;2023-06-14T00:45:55;10.27;;;6.63;;
64252;SDS011;50592;52.958;-7.470;2023-06-14T00:48:21;9.38;;;6.38;;
64252;SDS011;50592;52.958;-7.470;2023-06-14T00:50:49;8.95;;;6.35;;
64252;SDS011;50592;52.958;-7.470;2023-06-14T00:53:16;9.60;;;6.57;;
64252;SDS011;50592;52.958;-7.470;2023-06-14T00:55:50;8.80;;;6.32;;
64252;SDS011;50592;52.958;-7.470;2023-06-14T00:58:16;7.82;;;6.38;;
64252;SDS011;50592;52.958;-7.470;2023-06-14T01:00:42;11.70;;;6.50;;
64252;SDS011;50592;52.958;-7.470;2023-06-14T01:03:09;12.43;;;6.57;;
64252;SDS011;50592;52.958;-7.470;2023-06-14T01:05:38;7.30;;;5.95;;
64252;SDS011;50592;52.958;-7.470;2023-06-14T01:13:27;8.68;;;6.25;;
64252;SDS011;50592;52.958;-7.470;2023-06-14T01:15:57;9.52;;;6.40;;
64252;SDS011;50592;52.958;-7.470;2023-06-14T01:18:25;8.30;;;6.43;;
64252;SDS011;50592;52.958;-7.470;2023-06-14T01:20:53;10.18;;;6.32;;
64252;SDS011;50592;52.958;-7.470;2023-06-14T01:23:24;7.45;;;6.75;;
64252;SDS011;50592;52.958;-7.470;2023-06-14T01:25:51;8.52;;;6.22;;
64252;SDS011;50592;52.958;-7.470;2023-06-14T01:28:21;9.88;;;6.97;;
64252;SDS011;50592;52.958;-7.470;2023-06-14T01:30:51;7.22;;;6.53;;
64252;SDS011;50592;52.958;-7.470;2023-06-14T01:33:20;8.25;;;7.15;;
64252;SDS011;50592;52.958;-7.470;2023-06-14T01:35:49;6.53;;;5.70;;
64252;SDS011;50592;52.958;-7.470;2023-06-14T01:38:20;9.43;;;5.55;;
64252;SDS011;50592;52.958;-7.470;2023-06-14T01:40:50;9.93;;;5.70;;
64252;SDS011;50592;52.958;-7.470;2023-06-14T01:43:18;8.98;;;6.50;;
64252;SDS011;50592;52.958;-7.470;2023-06-14T01:45:45;11.57;;;7.00;;
64252;SDS011;50592;52.958;-7.470;2023-06-14T01:48:14;10.52;;;7.35;;
64252;SDS011;50592;52.958;-7.470;2023-06-14T01:50:39;9.27;;;8.35;;
64252;SDS011;50592;52.958;-7.470;2023-06-14T01:53:09;10.73;;;7.60;;
64252;SDS011;50592;52.958;-7.470;2023-06-14T01:55:36;12.32;;;8.52;;
64252;SDS011;50592;52.958;-7.470;2023-06-14T01:58:06;8.18;;;7.15;;
64252;SDS011;50592;52.958;-7.470;2023-06-14T02:00:32;9.73;;;6.93;;
64252;SDS011;50592;52.958;-7.470;2023-06-14T02:02:58;9.73;;;7.18;;
64252;SDS011;50592;52.958;-7.470;2023-06-14T02:05:25;11.57;;;7.18;;
64252;SDS011;50592;52.958;-7.470;2023-06-14T02:07:52;9.27;;;7.50;;
64252;SDS011;50592;52.958;-7.470;2023-06-14T02:10:18;8.50;;;7.10;;
64252;SDS011;50592;52.958;-7.470;2023-06-14T02:12:46;14.68;;;7.53;;
64252;SDS011;50592;52.958;-7.470;2023-06-14T02:15:12;10.70;;;7.72;;
64252;SDS011;50592;52.958;-7.470;2023-06-14T02:17:42;8.85;;;7.18;;
64252;SDS011;50592;52.958;-7.470;2023-06-14T02:20:09;8.25;;;7.32;;
64252;SDS011;50592;52.958;-7.470;2023-06-14T02:22:35;9.00;;;7.00;;
64252;SDS011;50592;52.958;-7.470;2023-06-14T02:25:01;9.05;;;7.07;;
64252;SDS011;50592;52.958;-7.470;2023-06-14T02:27:27;7.60;;;6.80;;
64252;SDS011;50592;52.958;-7.470;2023-06-14T02:29:53;8.73;;;7.20;;
64252;SDS011;50592;52.958;-7.470;2023-06-14T02:32:19;8.43;;;7.05;;
64252;SDS011;50592;52.958;-7.470;2023-06-14T02:34:45;11.98;;;7.95;;
64252;SDS011;50592;52.958;-7.470;2023-06-14T02:37:16;9.15;;;7.60;;
64252;SDS011;50592;52.958;-7.470;2023-06-14T02:39:42;11.43;;;8.35;;
64252;SDS011;50592;52.958;-7.470;2023-06-14T02:42:08;13.57;;;8.70;;
64252;SDS011;50592;52.958;-7.470;2023-06-14T02:44:33;7.93;;;6.90;;
64252;SDS011;50592;52.958;-7.470;2023-06-14T02:47:00;11.77;;;8.27;;
64252;SDS011;50592;52.958;-7.470;2023-06-14T02:49:26;8.40;;;7.53;;
64252;SDS011;50592;52.958;-7.470;2023-06-14T02:51:54;10.95;;;7.20;;
64252;SDS011;50592;52.958;-7.470;2023-06-14T02:54:20;8.60;;;7.40;;
64252;SDS011;50592;52.958;-7.470;2023-06-14T02:56:46;10.57;;;8.07;;
64252;SDS011;50592;52.958;-7.470;2023-06-14T02:59:12;9.75;;;8.20;;
64252;SDS011;50592;52.958;-7.470;2023-06-14T03:01:39;9.90;;;7.38;;
64252;SDS011;50592;52.958;-7.470;2023-06-14T03:04:09;8.88;;;7.65;;
64252;SDS011;50592;52.958;-7.470;2023-06-14T03:06:38;8.55;;;7.60;;
64252;SDS011;50592;52.958;-7.470;2023-06-14T03:09:05;8.93;;;7.35;;
64252;SDS011;50592;52.958;-7.470;2023-06-14T03:11:34;7.95;;;7.10;;
64252;SDS011;50592;52.958;-7.470;2023-06-14T03:14:01;10.50;;;6.93;;
64252;SDS011;50592;52.958;-7.470;2023-06-14T03:16:30;8.43;;;7.55;;
64252;SDS011;50592;52.958;-7.470;2023-06-14T03:18:58;7.60;;;6.72;;
64252;SDS011;50592;52.958;-7.470;2023-06-14T03:21:27;15.38;;;7.30;;
64252;SDS011;50592;52.958;-7.470;2023-06-14T03:23:57;9.77;;;7.05;;
64252;SDS011;50592;52.958;-7.470;2023-06-14T03:26:24;8.25;;;7.43;;
64252;SDS011;50592;52.958;-7.470;2023-06-14T03:28:53;15.02;;;7.97;;
64252;SDS011;50592;52.958;-7.470;2023-06-14T03:31:20;8.27;;;7.07;;
64252;SDS011;50592;52.958;-7.470;2023-06-14T03:33:47;9.32;;;7.88;;
64252;SDS011;50592;52.958;-7.470;2023-06-14T03:36:14;10.57;;;7.68;;
64252;SDS011;50592;52.958;-7.470;2023-06-14T03:38:40;8.27;;;7.40;;
64252;SDS011;50592;52.958;-7.470;2023-06-14T03:41:06;13.70;;;7.95;;
64252;SDS011;50592;52.958;-7.470;2023-06-14T03:43:32;8.70;;;7.80;;
64252;SDS011;50592;52.958;-7.470;2023-06-14T03:45:59;14.15;;;7.22;;
64252;SDS011;50592;52.958;-7.470;2023-06-14T03:48:27;9.48;;;7.50;;
64252;SDS011;50592;52.958;-7.470;2023-06-14T03:50:53;9.98;;;7.88;;
64252;SDS011;50592;52.958;-7.470;2023-06-14T03:53:20;8.90;;;6.97;;
64252;SDS011;50592;52.958;-7.470;2023-06-14T03:55:50;10.80;;;8.05;;
64252;SDS011;50592;52.958;-7.470;2023-06-14T03:58:21;7.82;;;7.05;;
64252;SDS011;50592;52.958;-7.470;2023-06-14T04:00:46;11.43;;;7.95;;
64252;SDS011;50592;52.958;-7.470;2023-06-14T04:03:13;11.73;;;7.45;;
64252;SDS011;50592;52.958;-7.470;2023-06-14T04:05:41;8.52;;;7.50;;
64252;SDS011;50592;52.958;-7.470;2023-06-14T04:08:15;11.35;;;7.53;;
64252;SDS011;50592;52.958;-7.470;2023-06-14T04:10:41;8.55;;;7.70;;
64252;SDS011;50592;52.958;-7.470;2023-06-14T04:13:07;8.27;;;7.07;;
64252;SDS011;50592;52.958;-7.470;2023-06-14T04:15:33;8.45;;;7.55;;
64252;SDS011;50592;52.958;-7.470;2023-06-14T04:18:00;8.07;;;7.20;;
64252;SDS011;50592;52.958;-7.470;2023-06-14T04:20:26;8.38;;;7.50;;
64252;SDS011;50592;52.958;-7.470;2023-06-14T04:22:52;8.77;;;7.78;;
64252;SDS011;50592;52.958;-7.470;2023-06-14T04:25:18;8.63;;;7.40;;
64252;SDS011;50592;52.958;-7.470;2023-06-14T04:27:46;12.95;;;7.90;;
64252;SDS011;50592;52.958;-7.470;2023-06-14T04:30:12;10.77;;;7.45;;
64252;SDS011;50592;52.958;-7.470;2023-06-14T04:32:47;7.43;;;6.72;;
64252;SDS011;50592;52.958;-7.470;2023-06-14T04:35:15;7.88;;;7.18;;
64252;SDS011;50592;52.958;-7.470;2023-06-14T04:37:43;9.85;;;7.25;;
64252;SDS011;50592;52.958;-7.470;2023-06-14T04:40:11;14.82;;;7.82;;
64252;SDS011;50592;52.958;-7.470;2023-06-14T04:42:38;8.73;;;6.93;;
64252;SDS011;50592;52.958;-7.470;2023-06-14T04:45:07;8.63;;;7.13;;
64252;SDS011;50592;52.958;-7.470;2023-06-14T04:47:35;7.57;;;6.50;;
64252;SDS011;50592;52.958;-7.470;2023-06-14T04:50:04;8.77;;;6.70;;
64252;SDS011;50592;52.958;-7.470;2023-06-14T04:52:31;11.13;;;6.88;;
64252;SDS011;50592;52.958;-7.470;2023-06-14T04:54:58;11.52;;;7.53;;
64252;SDS011;50592;52.958;-7.470;2023-06-14T04:57:26;9.55;;;6.75;;
64252;SDS011;50592;52.958;-7.470;2023-06-14T04:59:55;9.70;;;6.82;;
64252;SDS011;50592;52.958;-7.470;2023-06-14T05:02:22;9.70;;;7.45;;
64252;SDS011;50592;52.958;-7.470;2023-06-14T05:04:49;8.73;;;6.50;;
64252;SDS011;50592;52.958;-7.470;2023-06-14T05:07:16;9.52;;;6.90;;
64252;SDS011;50592;52.958;-7.470;2023-06-14T05:09:42;8.45;;;7.22;;
64252;SDS011;50592;52.958;-7.470;2023-06-14T05:12:09;12.25;;;7.50;;
64252;SDS011;50592;52.958;-7.470;2023-06-14T05:14:35;7.95;;;7.15;;
64252;SDS011;50592;52.958;-7.470;2023-06-14T05:17:03;9.25;;;7.28;;
64252;SDS011;50592;52.958;-7.470;2023-06-14T05:19:29;10.48;;;7.10;;
64252;SDS011;50592;52.958;-7.470;2023-06-14T05:21:55;9.20;;;7.43;;
64252;SDS011;50592;52.958;-7.470;2023-06-14T05:24:21;10.75;;;7.55;;
64252;SDS011;50592;52.958;-7.470;2023-06-14T05:26:47;10.45;;;6.50;;
64252;SDS011;50592;52.958;-7.470;2023-06-14T05:29:14;9.75;;;7.30;;
64252;SDS011;50592;52.958;-7.470;2023-06-14T05:31:40;10.23;;;7.13;;
64252;SDS011;50592;52.958;-7.470;2023-06-14T05:34:05;9.15;;;7.13;;
64252;SDS011;50592;52.958;-7.470;2023-06-14T05:36:31;13.05;;;7.25;;
64252;SDS011;50592;52.958;-7.470;2023-06-14T05:38:57;8.82;;;7.78;;
64252;SDS011;50592;52.958;-7.470;2023-06-14T05:41:28;7.85;;;7.05;;
64252;SDS011;50592;52.958;-7.470;2023-06-14T05:43:55;7.95;;;7.15;;
64252;SDS011;50592;52.958;-7.470;2023-06-14T05:46:21;11.57;;;7.30;;
64252;SDS011;50592;52.958;-7.470;2023-06-14T05:48:51;8.70;;;7.20;;
64252;SDS011;50592;52.958;-7.470;2023-06-14T05:51:17;8.40;;;7.53;;
64252;SDS011;50592;52.958;-7.470;2023-06-14T05:53:49;10.35;;;7.63;;
64252;SDS011;50592;52.958;-7.470;2023-06-14T05:56:15;9.68;;;6.75;;
64252;SDS011;50592;52.958;-7.470;2023-06-14T05:58:43;11.60;;;7.38;;
64252;SDS011;50592;52.958;-7.470;2023-06-14T06:01:10;10.48;;;6.75;;
64252;SDS011;50592;52.958;-7.470;2023-06-14T06:03:36;10.50;;;8.25;;
64252;SDS011;50592;52.958;-7.470;2023-06-14T06:06:03;11.77;;;7.38;;
64252;SDS011;50592;52.958;-7.470;2023-06-14T06:08:29;13.93;;;7.68;;
64252;SDS011;50592;52.958;-7.470;2023-06-14T06:10:55;12.93;;;7.50;;
64252;SDS011;50592;52.958;-7.470;2023-06-14T06:13:22;15.13;;;6.40;;
64252;SDS011;50592;52.958;-7.470;2023-06-14T06:15:48;10.25;;;7.22;;
64252;SDS011;50592;52.958;-7.470;2023-06-14T06:18:14;9.43;;;6.63;;
64252;SDS011;50592;52.958;-7.470;2023-06-14T06:20:40;8.77;;;6.38;;
64252;SDS011;50592;52.958;-7.470;2023-06-14T06:23:06;9.88;;;7.22;;
64252;SDS011;50592;52.958;-7.470;2023-06-14T06:25:33;8.93;;;6.25;;
64252;SDS011;50592;52.958;-7.470;2023-06-14T06:27:58;11.43;;;7.18;;
64252;SDS011;50592;52.958;-7.470;2023-06-14T06:30:25;10.18;;;6.47;;
64252;SDS011;50592;52.958;-7.470;2023-06-14T06:32:51;12.77;;;7.22;;
64252;SDS011;50592;52.958;-7.470;2023-06-14T06:35:17;16.20;;;7.43;;
64252;SDS011;50592;52.958;-7.470;2023-06-14T06:37:43;8.05;;;6.50;;
64252;SDS011;50592;52.958;-7.470;2023-06-14T06:40:08;11.70;;;7.45;;
64252;SDS011;50592;52.958;-7.470;2023-06-14T06:42:35;9.15;;;6.25;;
64252;SDS011;50592;52.958;-7.470;2023-06-14T06:45:03;9.10;;;6.88;;
64252;SDS011;50592;52.958;-7.470;2023-06-14T06:47:31;9.27;;;6.78;;
64252;SDS011;50592;52.958;-7.470;2023-06-14T06:49:57;9.55;;;6.30;;
64252;SDS011;50592;52.958;-7.470;2023-06-14T06:52:23;12.07;;;6.68;;
64252;SDS011;50592;52.958;-7.470;2023-06-14T06:54:48;13.98;;;6.82;;
64252;SDS011;50592;52.958;-7.470;2023-06-14T06:57:15;8.18;;;6.53;;
64252;SDS011;50592;52.958;-7.470;2023-06-14T06:59:41;15.57;;;6.82;;
64252;SDS011;50592;52.958;-7.470;2023-06-14T07:02:07;8.13;;;5.93;;
64252;SDS011;50592;52.958;-7.470;2023-06-14T07:04:32;12.20;;;6.65;;
64252;SDS011;50592;52.958;-7.470;2023-06-14T07:06:58;10.57;;;6.13;;
64252;SDS011;50592;52.958;-7.470;2023-06-14T07:09:24;10.70;;;6.75;;
64252;SDS011;50592;52.958;-7.470;2023-06-14T07:11:50;8.32;;;6.65;;
64252;SDS011;50592;52.958;-7.470;2023-06-14T07:14:16;10.32;;;6.45;;
64252;SDS011;50592;52.958;-7.470;2023-06-14T07:16:42;17.70;;;6.82;;
64252;SDS011;50592;52.958;-7.470;2023-06-14T07:19:08;12.80;;;6.63;;
64252;SDS011;50592;52.958;-7.470;2023-06-14T07:21:35;13.35;;;6.80;;
64252;SDS011;50592;52.958;-7.470;2023-06-14T07:24:04;14.80;;;6.65;;
64252;SDS011;50592;52.958;-7.470;2023-06-14T07:26:31;14.55;;;6.65;;
64252;SDS011;50592;52.958;-7.470;2023-06-14T07:28:57;10.15;;;6.10;;
64252;SDS011;50592;52.958;-7.470;2023-06-14T07:31:23;10.95;;;5.80;;
64252;SDS011;50592;52.958;-7.470;2023-06-14T07:33:49;14.70;;;6.35;;
64252;SDS011;50592;52.958;-7.470;2023-06-14T07:36:15;13.68;;;6.05;;
64252;SDS011;50592;52.958;-7.470;2023-06-14T07:38:40;20.25;;;6.15;;
64252;SDS011;50592;52.958;-7.470;2023-06-14T07:41:07;6.78;;;5.93;;
64252;SDS011;50592;52.958;-7.470;2023-06-14T07:43:32;14.63;;;5.80;;
64252;SDS011;50592;52.958;-7.470;2023-06-14T07:45:58;17.10;;;5.82;;
64252;SDS011;50592;52.958;-7.470;2023-06-14T07:48:24;9.25;;;6.10;;
64252;SDS011;50592;52.958;-7.470;2023-06-14T07:50:50;9.20;;;5.55;;
64252;SDS011;50592;52.958;-7.470;2023-06-14T07:53:16;9.57;;;5.57;;
64252;SDS011;50592;52.958;-7.470;2023-06-14T07:55:41;17.40;;;5.72;;
64252;SDS011;50592;52.958;-7.470;2023-06-14T07:58:08;8.43;;;5.63;;
64252;SDS011;50592;52.958;-7.470;2023-06-14T08:00:34;7.95;;;4.97;;
64252;SDS011;50592;52.958;-7.470;2023-06-14T08:03:00;7.88;;;5.20;;
64252;SDS011;50592;52.958;-7.470;2023-06-14T08:05:26;10.30;;;5.40;;
64252;SDS011;50592;52.958;-7.470;2023-06-14T08:07:53;6.70;;;4.97;;
64252;SDS011;50592;52.958;-7.470;2023-06-14T08:10:19;12.02;;;5.63;;
64252;SDS011;50592;52.958;-7.470;2023-06-14T08:12:46;8.77;;;4.72;;
64252;SDS011;50592;52.958;-7.470;2023-06-14T08:15:12;9.07;;;5.85;;
64252;SDS011;50592;52.958;-7.470;2023-06-14T08:17:38;7.82;;;4.95;;
64252;SDS011;50592;52.958;-7.470;2023-06-14T08:20:03;11.32;;;4.90;;
64252;SDS011;50592;52.958;-7.470;2023-06-14T08:22:31;9.15;;;5.65;;
64252;SDS011;50592;52.958;-7.470;2023-06-14T08:25:02;11.20;;;4.93;;
64252;SDS011;50592;52.958;-7.470;2023-06-14T08:27:29;9.63;;;5.10;;
64252;SDS011;50592;52.958;-7.470;2023-06-14T08:29:56;12.32;;;5.18;;
64252;SDS011;50592;52.958;-7.470;2023-06-14T08:32:22;9.32;;;4.90;;
64252;SDS011;50592;52.958;-7.470;2023-06-14T08:34:48;6.88;;;4.60;;
64252;SDS011;50592;52.958;-7.470;2023-06-14T08:37:14;7.00;;;5.13;;
64252;SDS011;50592;52.958;-7.470;2023-06-14T08:39:39;11.15;;;4.70;;
64252;SDS011;50592;52.958;-7.470;2023-06-14T08:42:07;7.47;;;5.07;;
64252;SDS011;50592;52.958;-7.470;2023-06-14T08:44:34;9.38;;;4.75;;
64252;SDS011;50592;52.958;-7.470;2023-06-14T08:47:00;7.70;;;4.70;;
64252;SDS011;50592;52.958;-7.470;2023-06-14T08:49:26;9.27;;;5.10;;
64252;SDS011;50592;52.958;-7.470;2023-06-14T08:51:54;15.85;;;5.40;;
64252;SDS011;50592;52.958;-7.470;2023-06-14T08:54:23;9.15;;;4.70;;
64252;SDS011;50592;52.958;-7.470;2023-06-14T08:56:53;10.32;;;5.00;;
64252;SDS011;50592;52.958;-7.470;2023-06-14T08:59:25;8.93;;;5.25;;
64252;SDS011;50592;52.958;-7.470;2023-06-14T09:01:52;16.25;;;5.45;;
64252;SDS011;50592;52.958;-7.470;2023-06-14T09:04:23;12.40;;;5.32;;
64252;SDS011;50592;52.958;-7.470;2023-06-14T09:06:55;10.88;;;5.25;;
64252;SDS011;50592;52.958;-7.470;2023-06-14T09:09:21;9.65;;;5.03;;
64252;SDS011;50592;52.958;-7.470;2023-06-14T09:11:54;8.38;;;5.75;;
64252;SDS011;50592;52.958;-7.470;2023-06-14T09:14:21;16.88;;;5.22;;
64252;SDS011;50592;52.958;-7.470;2023-06-14T09:16:52;11.80;;;5.22;;
64252;SDS011;50592;52.958;-7.470;2023-06-14T09:19:22;9.95;;;5.05;;
64252;SDS011;50592;52.958;-7.470;2023-06-14T09:21:49;9.10;;;4.80;;
64252;SDS011;50592;52.958;-7.470;2023-06-14T09:24:15;9.07;;;5.45;;
64252;SDS011;50592;52.958;-7.470;2023-06-14T09:26:41;11.25;;;5.65;;
64252;SDS011;50592;52.958;-7.470;2023-06-14T09:29:07;7.15;;;4.65;;
64252;SDS011;50592;52.958;-7.470;2023-06-14T09:31:34;9.02;;;5.00;;
64252;SDS011;50592;52.958;-7.470;2023-06-14T09:34:01;8.18;;;4.95;;
64252;SDS011;50592;52.958;-7.470;2023-06-14T09:36:27;18.35;;;5.43;;
64252;SDS011;50592;52.958;-7.470;2023-06-14T09:38:55;7.38;;;5.07;;
64252;SDS011;50592;52.958;-7.470;2023-06-14T09:41:31;9.38;;;5.47;;
64252;SDS011;50592;52.958;-7.470;2023-06-14T09:44:05;7.65;;;5.30;;
64252;SDS011;50592;52.958;-7.470;2023-06-14T09:46:33;9.30;;;5.57;;
64252;SDS011;50592;52.958;-7.470;2023-06-14T09:49:00;10.32;;;5.20;;
64252;SDS011;50592;52.958;-7.470;2023-06-14T09:51:27;5.97;;;5.32;;
64252;SDS011;50592;52.958;-7.470;2023-06-14T09:53:59;9.60;;;5.13;;
64252;SDS011;50592;52.958;-7.470;2023-06-14T09:56:31;6.32;;;5.22;;
64252;SDS011;50592;52.958;-7.470;2023-06-14T09:58:59;19.80;;;5.90;;
64252;SDS011;50592;52.958;-7.470;2023-06-14T10:01:30;9.20;;;4.93;;
64252;SDS011;50592;52.958;-7.470;2023-06-14T10:04:06;8.10;;;4.85;;
64252;SDS011;50592;52.958;-7.470;2023-06-14T10:06:35;17.40;;;6.03;;
64252;SDS011;50592;52.958;-7.470;2023-06-14T10:09:03;9.77;;;5.20;;
64252;SDS011;50592;52.958;-7.470;2023-06-14T10:11:32;8.73;;;4.80;;
64252;SDS011;50592;52.958;-7.470;2023-06-14T10:13:58;6.03;;;4.35;;
64252;SDS011;50592;52.958;-7.470;2023-06-14T10:16:29;9.75;;;4.65;;
64252;SDS011;50592;52.958;-7.470;2023-06-14T10:24:33;6.82;;;4.95;;
64252;SDS011;50592;52.958;-7.470;2023-06-14T10:27:05;7.65;;;4.47;;
64252;SDS011;50592;52.958;-7.470;2023-06-14T10:32:23;6.20;;;4.93;;
64252;SDS011;50592;52.958;-7.470;2023-06-14T10:34:56;9.88;;;4.93;;
64252;SDS011;50592;52.958;-7.470;2023-06-14T10:37:24;7.18;;;4.45;;
64252;SDS011;50592;52.958;-7.470;2023-06-14T10:39:51;13.43;;;5.78;;
64252;SDS011;50592;52.958;-7.470;2023-06-14T10:42:16;8.38;;;3.85;;
64252;SDS011;50592;52.958;-7.470;2023-06-14T10:44:43;15.93;;;5.03;;
64252;SDS011;50592;52.958;-7.470;2023-06-14T10:47:21;9.00;;;4.70;;
64252;SDS011;50592;52.958;-7.470;2023-06-14T10:49:50;7.47;;;5.15;;
64252;SDS011;50592;52.958;-7.470;2023-06-14T10:52:20;8.60;;;4.72;;
64252;SDS011;50592;52.958;-7.470;2023-06-14T10:57:44;7.05;;;4.35;;
64252;SDS011;50592;52.958;-7.470;2023-06-14T11:00:12;9.15;;;4.45;;
64252;SDS011;50592;52.958;-7.470;2023-06-14T11:02:49;8.95;;;4.07;;
64252;SDS011;50592;52.958;-7.470;2023-06-14T11:11:29;5.32;;;4.80;;
64252;SDS011;50592;52.958;-7.470;2023-06-14T11:13:59;7.38;;;4.78;;
64252;SDS011;50592;52.958;-7.470;2023-06-14T11:16:26;10.93;;;4.43;;
64252;SDS011;50592;52.958;-7.470;2023-06-14T11:18:55;15.73;;;5.40;;
64252;SDS011;50592;52.958;-7.470;2023-06-14T11:21:21;9.95;;;5.25;;
64252;SDS011;50592;52.958;-7.470;2023-06-14T11:23:50;10.13;;;4.65;;
64252;SDS011;50592;52.958;-7.470;2023-06-14T11:26:30;5.72;;;4.07;;
64252;SDS011;50592;52.958;-7.470;2023-06-14T11:28:57;5.25;;;4.50;;
64252;SDS011;50592;52.958;-7.470;2023-06-14T11:31:24;8.63;;;4.35;;
64252;SDS011;50592;52.958;-7.470;2023-06-14T11:33:55;5.85;;;4.28;;
64252;SDS011;50592;52.958;-7.470;2023-06-14T11:36:22;8.20;;;3.83;;
64252;SDS011;50592;52.958;-7.470;2023-06-14T11:38:57;6.65;;;3.85;;
64252;SDS011;50592;52.958;-7.470;2023-06-14T11:41:37;12.02;;;4.40;;
64252;SDS011;50592;52.958;-7.470;2023-06-14T11:44:05;6.00;;;4.28;;
64252;SDS011;50592;52.958;-7.470;2023-06-14T11:46:32;11.05;;;4.70;;
64252;SDS011;50592;52.958;-7.470;2023-06-14T11:48:58;18.08;;;5.63;;
64252;SDS011;50592;52.958;-7.470;2023-06-14T11:51:28;10.25;;;4.55;;
64252;SDS011;50592;52.958;-7.470;2023-06-14T11:53:55;11.80;;;4.68;;
64252;SDS011;50592;52.958;-7.470;2023-06-14T11:56:21;12.35;;;4.50;;
64252;SDS011;50592;52.958;-7.470;2023-06-14T11:58:47;8.85;;;4.72;;
64252;SDS011;50592;52.958;-7.470;2023-06-14T12:01:17;9.90;;;4.75;;
64252;SDS011;50592;52.958;-7.470;2023-06-14T12:03:49;5.65;;;4.10;;
64252;SDS011;50592;52.958;-7.470;2023-06-14T12:06:24;8.93;;;4.75;;
64252;SDS011;50592;52.958;-7.470;2023-06-14T12:08:55;7.25;;;4.43;;
64252;SDS011;50592;52.958;-7.470;2023-06-14T12:11:21;4.45;;;3.88;;
64252;SDS011;50592;52.958;-7.470;2023-06-14T12:13:47;5.63;;;4.30;;
64252;SDS011;50592;52.958;-7.470;2023-06-14T12:16:14;5.45;;;4.03;;
64252;SDS011;50592;52.958;-7.470;2023-06-14T12:18:40;5.95;;;4.45;;
64252;SDS011;50592;52.958;-7.470;2023-06-14T12:21:06;9.35;;;4.07;;
64252;SDS011;50592;52.958;-7.470;2023-06-14T12:23:46;8.05;;;4.07;;
64252;SDS011;50592;52.958;-7.470;2023-06-14T12:26:16;9.40;;;4.38;;
64252;SDS011;50592;52.958;-7.470;2023-06-14T12:28:47;6.43;;;4.40;;
64252;SDS011;50592;52.958;-7.470;2023-06-14T12:31:16;6.90;;;4.50;;
64252;SDS011;50592;52.958;-7.470;2023-06-14T12:33:44;6.65;;;4.20;;
64252;SDS011;50592;52.958;-7.470;2023-06-14T12:36:11;6.55;;;4.15;;
64252;SDS011;50592;52.958;-7.470;2023-06-14T12:38:37;8.18;;;4.97;;
64252;SDS011;50592;52.958;-7.470;2023-06-14T12:41:03;5.40;;;4.13;;
64252;SDS011;50592;52.958;-7.470;2023-06-14T12:43:29;6.32;;;3.97;;
64252;SDS011;50592;52.958;-7.470;2023-06-14T12:45:55;7.53;;;4.60;;
64252;SDS011;50592;52.958;-7.470;2023-06-14T12:48:21;6.75;;;3.95;;
64252;SDS011;50592;52.958;-7.470;2023-06-14T12:50:47;7.43;;;3.78;;
64252;SDS011;50592;52.958;-7.470;2023-06-14T12:53:13;8.45;;;3.85;;
64252;SDS011;50592;52.958;-7.470;2023-06-14T12:55:39;10.93;;;4.32;;
64252;SDS011;50592;52.958;-7.470;2023-06-14T12:58:06;5.57;;;4.03;;
64252;SDS011;50592;52.958;-7.470;2023-06-14T13:00:32;6.72;;;3.70;;
64252;SDS011;50592;52.958;-7.470;2023-06-14T13:02:58;5.82;;;4.10;;
64252;SDS011;50592;52.958;-7.470;2023-06-14T13:05:24;8.80;;;3.63;;
64252;SDS011;50592;52.958;-7.470;2023-06-14T13:07:50;7.45;;;4.32;;
64252;SDS011;50592;52.958;-7.470;2023-06-14T13:10:16;5.60;;;4.38;;
64252;SDS011;50592;52.958;-7.470;2023-06-14T13:12:43;6.82;;;4.35;;
64252;SDS011;50592;52.958;-7.470;2023-06-14T13:15:09;6.88;;;4.43;;
64252;SDS011;50592;52.958;-7.470;2023-06-14T13:17:35;5.97;;;4.05;;
64252;SDS011;50592;52.958;-7.470;2023-06-14T13:20:05;12.23;;;4.20;;
64252;SDS011;50592;52.958;-7.470;2023-06-14T13:22:34;9.05;;;3.90;;
64252;SDS011;50592;52.958;-7.470;2023-06-14T13:25:00;4.00;;;3.60;;
64252;SDS011;50592;52.958;-7.470;2023-06-14T13:27:27;7.03;;;4.00;;
64252;SDS011;50592;52.958;-7.470;2023-06-14T13:29:53;4.80;;;4.13;;
64252;SDS011;50592;52.958;-7.470;2023-06-14T13:32:20;8.00;;;3.75;;
64252;SDS011;50592;52.958;-7.470;2023-06-14T13:34:47;5.85;;;3.83;;
64252;SDS011;50592;52.958;-7.470;2023-06-14T13:37:13;7.22;;;3.83;;
64252;SDS011;50592;52.958;-7.470;2023-06-14T13:39:39;6.82;;;3.58;;
64252;SDS011;50592;52.958;-7.470;2023-06-14T13:42:05;10.27;;;4.10;;
64252;SDS011;50592;52.958;-7.470;2023-06-14T13:44:31;6.03;;;3.80;;
64252;SDS011;50592;52.958;-7.470;2023-06-14T13:46:56;5.75;;;3.58;;
64252;SDS011;50592;52.958;-7.470;2023-06-14T13:49:22;6.75;;;3.95;;
64252;SDS011;50592;52.958;-7.470;2023-06-14T13:51:48;3.92;;;3.53;;
64252;SDS011;50592;52.958;-7.470;2023-06-14T13:54:14;4.65;;;3.85;;
64252;SDS011;50592;52.958;-7.470;2023-06-14T13:56:40;11.23;;;4.15;;
64252;SDS011;50592;52.958;-7.470;2023-06-14T13:59:07;5.88;;;3.67;;
64252;SDS011;50592;52.958;-7.470;2023-06-14T14:01:33;4.18;;;3.03;;
64252;SDS011;50592;52.958;-7.470;2023-06-14T14:03:59;8.73;;;3.47;;
64252;SDS011;50592;52.958;-7.470;2023-06-14T14:06:26;8.32;;;3.83;;
64252;SDS011;50592;52.958;-7.470;2023-06-14T14:08:52;11.48;;;4.13;;
64252;SDS011;50592;52.958;-7.470;2023-06-14T14:11:19;13.10;;;3.28;;
64252;SDS011;50592;52.958;-7.470;2023-06-14T14:13:46;9.95;;;3.90;;
64252;SDS011;50592;52.958;-7.470;2023-06-14T14:16:12;9.50;;;3.90;;
64252;SDS011;50592;52.958;-7.470;2023-06-14T14:18:38;8.98;;;3.83;;
64252;SDS011;50592;52.958;-7.470;2023-06-14T14:21:05;6.43;;;3.35;;
64252;SDS011;50592;52.958;-7.470;2023-06-14T14:23:30;5.90;;;3.38;;
64252;SDS011;50592;52.958;-7.470;2023-06-14T14:25:56;6.95;;;3.08;;
64252;SDS011;50592;52.958;-7.470;2023-06-14T14:28:22;6.18;;;3.58;;
64252;SDS011;50592;52.958;-7.470;2023-06-14T14:30:48;7.80;;;3.67;;
64252;SDS011;50592;52.958;-7.470;2023-06-14T14:33:15;11.10;;;3.60;;
64252;SDS011;50592;52.958;-7.470;2023-06-14T14:35:43;6.18;;;3.78;;
64252;SDS011;50592;52.958;-7.470;2023-06-14T14:38:11;8.45;;;3.20;;
64252;SDS011;50592;52.958;-7.470;2023-06-14T14:40:38;8.15;;;3.58;;
64252;SDS011;50592;52.958;-7.470;2023-06-14T14:43:05;5.65;;;3.33;;
64252;SDS011;50592;52.958;-7.470;2023-06-14T14:45:31;5.65;;;2.90;;
64252;SDS011;50592;52.958;-7.470;2023-06-14T14:47:57;3.58;;;3.05;;
64252;SDS011;50592;52.958;-7.470;2023-06-14T14:50:24;5.68;;;2.60;;
64252;SDS011;50592;52.958;-7.470;2023-06-14T14:52:51;3.25;;;2.47;;
64252;SDS011;50592;52.958;-7.470;2023-06-14T14:55:16;6.32;;;3.00;;